Jim Hamilton L.B. Owens Airport
KCUB : now visible

Airfield :











YOU CAN JOIN US ON...

 
LOGIN :

Register | Disclaimer

   EN    FR    IT 

 









Legend :    VFR   Marginal VFR   IFR   Intensive IFR   Very Intensive IFR
Visi :
Ceiling :
>= 8 km
>= 3000ft
5 to 8 km
1000 to 3000 ft
1500m to 5 km
500 to 1000 ft
800 to 1500m
200 to 500 ft
< 800m
< 200 ft
Symbols :   Thunderstorms  Fog  Heavy snow  Heavy precipitations  Wind > 20 kt






- Airport Elevation : 193 ft


KCUB - Jim Hamilton L.B. Owens

CURRENT METAR :
  • 071527Z AUTO 00000KT 10SM FEW026 SCT080 30/23 A3025 RMK AO2 T03000228

EXPIRED METARs :
  • 071512Z AUTO 00000KT 10SM VCTS FEW025 29/23 A3025 RMK AO2 T02940228
  • 071453Z AUTO VRB04KT 10SM CLR 30/23 A3025 RMK AO2 LTG DSNT NE SLP241 T03000228 50007
  • 071353Z AUTO 18003KT 10SM SCT038 28/23 A3026 RMK AO2 SLP243 T02830228
  • 071253Z AUTO 00000KT 10SM CLR 26/22 A3025 RMK AO2 SLP242 T02610222

TAF KCUB
Valid from the 07 at 15:00 until the 08 at 12:00 UTC


071510Z 0715/0812 13004KT P6SM VCTS SCT040CB SCT150 BKN250
TEMPO 0719/0723 VRB10G20KT 3SM -TSRA
FM080000 VRB03KT P6SM SCT100
KZJX FIR / North America



MET'MAP, your aeronautical weather chart ! - Copyright ORBIFLY December 2007 - Disclaimer

ORBIFLY MET'MAP TEAM :

Programming & Development : Alexandra Zaïnal
Original concept : Baudouin d'Aumeries
Technical & hardware support : Manuel Goepfert
Assistance : Marc-Olivier Méhu




SOURCES & CREDITS :

   NOAA       Earth
Advisory